createdAt,value
2023-01-03T00:00:13.302Z,12.70
2023-01-03T00:02:42.425Z,12.63
2023-01-03T00:05:10.681Z,12.67
2023-01-03T00:07:38.326Z,12.19
2023-01-03T00:10:08.229Z,12.53
2023-01-03T00:12:36.173Z,12.32
2023-01-03T00:15:04.138Z,12.18
2023-01-03T00:17:31.801Z,12.41
2023-01-03T00:20:00.869Z,12.40
2023-01-03T00:22:28.537Z,12.33
2023-01-03T00:24:59.303Z,11.98
2023-01-03T00:27:27.371Z,12.20
2023-01-03T00:29:55.031Z,12.28
2023-01-03T00:32:22.894Z,12.29
2023-01-03T00:34:50.560Z,12.26
2023-01-03T00:37:19.600Z,12.28
2023-01-03T00:39:47.272Z,12.34
2023-01-03T00:42:14.929Z,12.36
2023-01-03T00:44:42.538Z,12.37
2023-01-03T00:47:10.167Z,12.28
2023-01-03T00:49:37.768Z,12.41
2023-01-03T00:52:05.643Z,12.44
2023-01-03T00:54:34.566Z,12.36
2023-01-03T00:57:02.264Z,12.42
2023-01-03T00:59:30.091Z,12.36
2023-01-03T01:01:58.497Z,11.50
2023-01-03T01:04:27.834Z,12.38
2023-01-03T01:06:56.185Z,12.33
2023-01-03T01:09:24.696Z,12.17
2023-01-03T01:11:53.711Z,12.31
2023-01-03T01:14:22.439Z,12.28
2023-01-03T01:16:51.713Z,12.07
2023-01-03T01:19:21.897Z,12.16
2023-01-03T01:21:49.541Z,12.29
2023-01-03T01:24:18.142Z,12.26
2023-01-03T01:26:46.290Z,12.13
2023-01-03T01:29:15.793Z,12.12
2023-01-03T01:31:43.627Z,12.00
2023-01-03T01:34:11.607Z,12.02
2023-01-03T01:36:41.834Z,12.00
2023-01-03T01:39:11.320Z,11.96
2023-01-03T01:41:56.887Z,11.66
2023-01-03T01:44:54.881Z,11.97
2023-01-03T01:47:35.518Z,11.73
2023-01-03T01:50:08.155Z,11.81
2023-01-03T01:52:37.652Z,11.47
2023-01-03T01:55:06.424Z,11.74
2023-01-03T01:57:34.032Z,11.69
2023-01-03T02:00:03.201Z,11.35
2023-01-03T02:02:30.982Z,11.56
2023-01-03T02:04:58.783Z,11.47
2023-01-03T02:07:26.348Z,11.45
2023-01-03T02:09:55.623Z,11.15
2023-01-03T02:12:47.844Z,11.34
2023-01-03T02:15:23.523Z,11.27
2023-01-03T02:17:59.915Z,10.90
2023-01-03T02:20:33.527Z,11.20
2023-01-03T02:23:26.636Z,11.22
2023-01-03T02:26:25.159Z,11.03
2023-01-03T02:29:07.421Z,11.32
2023-01-03T02:31:39.377Z,11.41
2023-01-03T02:34:09.917Z,11.02
2023-01-03T02:36:42.012Z,11.28
2023-01-03T02:39:13.152Z,11.37
2023-01-03T02:41:43.054Z,11.70
2023-01-03T02:44:16.843Z,11.70
2023-01-03T02:46:47.720Z,11.87
2023-01-03T02:49:18.792Z,11.40
2023-01-03T02:51:47.042Z,11.93
2023-01-03T02:54:18.475Z,12.01
2023-01-03T02:56:48.562Z,12.05
2023-01-03T02:59:17.769Z,12.08
2023-01-03T03:01:50.061Z,12.11
2023-01-03T03:04:18.831Z,12.12
2023-01-03T03:06:48.553Z,12.14
2023-01-03T03:09:16.218Z,12.14
2023-01-03T03:12:01.801Z,12.12
2023-01-03T03:14:31.857Z,11.72
2023-01-03T03:17:01.872Z,12.03
2023-01-03T03:19:48.519Z,11.85
2023-01-03T03:22:38.619Z,12.00
2023-01-03T03:25:08.881Z,11.89
2023-01-03T03:27:53.896Z,11.72
2023-01-03T03:30:21.723Z,12.02
2023-01-03T03:32:51.036Z,12.04
2023-01-03T03:35:18.747Z,12.07
2023-01-03T03:37:46.979Z,12.08
2023-01-03T03:40:32.163Z,12.08
2023-01-03T03:43:20.848Z,12.07
2023-01-03T03:45:51.484Z,11.95
2023-01-03T03:48:22.944Z,12.05
2023-01-03T03:50:52.006Z,12.06
2023-01-03T03:53:21.025Z,12.01
2023-01-03T03:55:49.951Z,11.96
2023-01-03T03:58:19.619Z,11.91
2023-01-03T04:00:47.824Z,11.88
2023-01-03T04:03:15.811Z,11.82
2023-01-03T04:05:47.751Z,11.43
2023-01-03T04:08:15.437Z,11.70
2023-01-03T04:10:43.192Z,11.77
2023-01-03T04:13:13.020Z,11.74
2023-01-03T04:15:40.583Z,11.69
2023-01-03T04:18:08.299Z,11.67
2023-01-03T04:20:35.897Z,11.59
2023-01-03T04:23:05.111Z,11.64
2023-01-03T04:25:32.653Z,11.62
2023-01-03T04:28:00.297Z,11.63
2023-01-03T04:30:27.975Z,11.61
2023-01-03T04:32:56.454Z,11.62
2023-01-03T04:35:24.095Z,11.60
2023-01-03T04:37:51.749Z,11.46
2023-01-03T04:40:20.692Z,11.41
2023-01-03T04:43:20.155Z,11.34
2023-01-03T04:45:48.909Z,11.29
2023-01-03T04:48:16.707Z,11.30
2023-01-03T04:50:52.117Z,10.89
2023-01-03T04:53:19.726Z,11.17
2023-01-03T04:55:49.052Z,11.10
2023-01-03T04:58:16.633Z,11.09
2023-01-03T05:00:44.458Z,10.70
2023-01-03T05:03:12.096Z,11.01
2023-01-03T05:05:39.836Z,10.61
2023-01-03T05:08:07.904Z,10.30
2023-01-03T05:10:35.796Z,10.78
2023-01-03T05:13:04.739Z,10.84
2023-01-03T05:15:33.288Z,10.80
2023-01-03T05:18:00.864Z,10.78
2023-01-03T05:20:46.279Z,10.74
2023-01-03T05:23:32.208Z,10.72
2023-01-03T05:25:59.888Z,10.68
2023-01-03T05:28:28.949Z,10.58
2023-01-03T05:30:58.558Z,10.54
2023-01-03T05:33:26.208Z,10.66
2023-01-03T05:35:53.779Z,10.66
2023-01-03T05:38:21.511Z,10.64
2023-01-03T05:40:49.132Z,10.63
2023-01-03T05:43:16.860Z,10.53
2023-01-03T05:45:50.145Z,10.13
2023-01-03T05:48:17.860Z,10.22
2023-01-03T05:50:45.534Z,11.03
2023-01-03T05:53:13.239Z,10.58
2023-01-03T05:55:41.115Z,11.13
2023-01-03T05:58:08.967Z,10.53
2023-01-03T06:00:36.700Z,9.93
2023-01-03T06:03:05.943Z,9.45
2023-01-03T06:05:33.714Z,11.30
2023-01-03T06:08:02.253Z,11.07
2023-01-03T06:10:30.071Z,9.10
2023-01-03T06:12:57.978Z,10.50
2023-01-03T06:15:25.793Z,10.96
2023-01-03T06:17:57.678Z,11.43
2023-01-03T06:20:27.568Z,11.46
2023-01-03T06:22:55.509Z,10.52
2023-01-03T06:25:23.537Z,10.14
2023-01-03T06:27:51.221Z,11.53
2023-01-03T06:30:19.141Z,11.61
2023-01-03T06:32:47.049Z,10.63
2023-01-03T06:35:14.874Z,9.48
2023-01-03T06:37:44.009Z,10.77
2023-01-03T06:42:46.842Z,11.72
2023-01-03T06:45:32.441Z,11.71
2023-01-03T06:48:21.563Z,11.75
2023-01-03T06:51:06.943Z,11.79
2023-01-03T06:56:04.124Z,11.29
2023-01-03T06:58:31.779Z,11.19
2023-01-03T07:01:02.537Z,10.75
2023-01-03T07:03:30.349Z,10.61
2023-01-03T07:05:58.118Z,11.89
2023-01-03T07:08:25.885Z,11.89
2023-01-03T07:10:53.889Z,11.65
2023-01-03T07:13:40.782Z,11.93
2023-01-03T07:16:08.588Z,11.93
2023-01-03T07:18:36.277Z,11.87
2023-01-03T07:21:06.691Z,11.95
2023-01-03T07:23:34.783Z,11.98
2023-01-03T07:26:02.350Z,11.94
2023-01-03T07:28:32.942Z,11.91
2023-01-03T07:31:01.171Z,11.70
2023-01-03T07:33:28.995Z,11.87
2023-01-03T07:36:03.634Z,11.79
2023-01-03T07:38:37.266Z,11.79
2023-01-03T07:41:10.944Z,11.70
2023-01-03T07:43:40.515Z,11.70
2023-01-03T07:46:09.768Z,11.51
2023-01-03T07:48:37.509Z,11.73
2023-01-03T07:51:08.168Z,11.74
2023-01-03T07:53:36.345Z,11.69
2023-01-03T07:56:10.772Z,11.77
2023-01-03T07:58:42.488Z,11.77
2023-01-03T08:01:11.222Z,11.83
2023-01-03T08:03:39.187Z,11.86
2023-01-03T08:06:08.017Z,11.87
2023-01-03T08:08:36.036Z,11.83
2023-01-03T08:11:21.509Z,11.84
2023-01-03T08:13:50.534Z,11.80
2023-01-03T08:16:19.301Z,11.78
2023-01-03T08:18:47.150Z,11.78
2023-01-03T08:21:16.075Z,11.53
2023-01-03T08:23:43.947Z,11.76
2023-01-03T08:26:12.793Z,11.89
2023-01-03T08:28:40.700Z,12.06
2023-01-03T08:31:11.877Z,12.49
2023-01-03T08:33:43.818Z,12.86
2023-01-03T08:36:11.640Z,13.04
2023-01-03T08:38:41.351Z,13.02
2023-01-03T08:41:09.667Z,12.86
2023-01-03T08:43:38.870Z,12.93
2023-01-03T08:46:07.321Z,12.85
2023-01-03T08:48:36.491Z,12.67
2023-01-03T08:51:04.689Z,12.70
2023-01-03T08:53:32.501Z,12.67
2023-01-03T08:56:00.435Z,12.68
2023-01-03T08:58:28.435Z,12.69
2023-01-03T09:00:56.318Z,12.80
2023-01-03T09:03:24.322Z,12.78
2023-01-03T09:05:53.662Z,12.77
2023-01-03T09:08:21.577Z,12.81
2023-01-03T09:10:49.189Z,12.83
2023-01-03T09:13:16.772Z,12.86
2023-01-03T09:15:44.658Z,12.93
2023-01-03T09:18:12.698Z,13.00
2023-01-03T09:20:40.368Z,12.97
2023-01-03T09:23:09.415Z,12.87
2023-01-03T09:25:37.636Z,12.94
2023-01-03T09:28:05.588Z,13.03
2023-01-03T09:30:33.166Z,13.05
2023-01-03T09:33:00.846Z,13.04
2023-01-03T09:35:28.452Z,13.10
2023-01-03T09:37:56.040Z,13.08
2023-01-03T09:40:24.946Z,13.14
2023-01-03T09:43:10.014Z,13.20
2023-01-03T09:45:38.801Z,13.29
2023-01-03T09:48:07.487Z,13.16
2023-01-03T09:50:57.080Z,13.14
2023-01-03T09:53:44.976Z,13.11
2023-01-03T09:56:31.409Z,13.17
2023-01-03T09:59:29.214Z,13.33
2023-01-03T10:02:17.788Z,13.45
2023-01-03T10:04:54.832Z,13.49
2023-01-03T10:07:31.988Z,13.45
2023-01-03T10:10:02.053Z,13.47
2023-01-03T10:12:34.414Z,13.46
2023-01-03T10:15:15.813Z,13.45
2023-01-03T10:17:46.220Z,13.47
2023-01-03T10:20:19.795Z,13.51
2023-01-03T10:22:47.760Z,13.67
2023-01-03T10:25:16.915Z,13.90
2023-01-03T10:27:47.409Z,13.91
2023-01-03T10:30:17.141Z,13.82
2023-01-03T10:33:02.619Z,13.97
2023-01-03T10:35:31.493Z,14.05
2023-01-03T10:37:59.378Z,14.14
2023-01-03T10:40:33.073Z,14.08
2023-01-03T10:43:08.125Z,14.20
2023-01-03T10:45:42.803Z,14.24
2023-01-03T10:48:14.482Z,14.12
2023-01-03T10:50:42.098Z,14.05
2023-01-03T10:53:09.861Z,14.51
2023-01-03T10:55:37.675Z,15.12
2023-01-03T10:58:16.172Z,15.54
2023-01-03T11:00:44.099Z,15.86
2023-01-03T11:03:16.167Z,17.08
2023-01-03T11:05:44.955Z,17.80
2023-01-03T11:08:18.338Z,17.53
2023-01-03T11:10:54.480Z,17.37
2023-01-03T11:13:41.665Z,17.83
2023-01-03T11:16:14.403Z,17.27
2023-01-03T11:18:42.324Z,16.96
2023-01-03T11:21:12.994Z,16.83
2023-01-03T11:23:58.486Z,16.37
2023-01-03T11:26:33.955Z,16.13
2023-01-03T11:29:08.960Z,16.00
2023-01-03T11:31:40.509Z,15.92
2023-01-03T11:34:17.146Z,15.73
2023-01-03T11:36:48.931Z,15.64
2023-01-03T11:39:27.180Z,15.10
2023-01-03T11:42:29.966Z,15.32
2023-01-03T11:45:26.507Z,15.18
2023-01-03T11:47:59.632Z,15.00
2023-01-03T11:50:29.155Z,14.76
2023-01-03T11:53:01.371Z,14.78
2023-01-03T11:55:43.172Z,14.78
2023-01-03T11:58:21.865Z,14.67
2023-01-03T12:00:53.445Z,14.76
2023-01-03T12:03:25.492Z,14.83
2023-01-03T12:05:56.020Z,14.83
2023-01-03T12:08:53.454Z,14.90
2023-01-03T12:11:36.823Z,14.99
2023-01-03T12:14:07.266Z,14.98
2023-01-03T12:16:38.100Z,15.16
2023-01-03T12:19:12.540Z,15.40
2023-01-03T12:21:42.107Z,15.43
2023-01-03T12:24:13.805Z,15.38
2023-01-03T12:26:43.319Z,15.33
2023-01-03T12:29:14.202Z,15.33
2023-01-03T12:31:45.416Z,15.25
2023-01-03T12:34:20.440Z,14.88
2023-01-03T12:36:51.830Z,15.07
2023-01-03T12:39:49.359Z,15.08
2023-01-03T12:42:22.368Z,15.07
2023-01-03T12:44:52.237Z,15.16
2023-01-03T12:47:26.689Z,16.01
2023-01-03T12:49:56.009Z,17.62
2023-01-03T12:52:23.670Z,18.35
2023-01-03T12:57:42.873Z,18.29
2023-01-03T13:00:23.679Z,17.80
2023-01-03T13:02:54.282Z,17.38
2023-01-03T13:05:25.470Z,16.84
2023-01-03T13:08:06.152Z,16.74
2023-01-03T13:10:34.800Z,16.76
2023-01-03T13:13:02.483Z,16.54
2023-01-03T13:15:36.111Z,16.48
2023-01-03T13:18:31.806Z,16.48
2023-01-03T13:20:59.461Z,16.21
2023-01-03T13:23:35.439Z,16.07
2023-01-03T13:26:18.361Z,15.45
2023-01-03T13:28:45.987Z,15.87
2023-01-03T13:31:38.684Z,15.15
2023-01-03T13:34:16.907Z,15.66
2023-01-03T13:37:22.051Z,15.65
2023-01-03T13:40:18.114Z,15.38
2023-01-03T13:42:45.785Z,15.38
2023-01-03T13:45:56.171Z,15.34
2023-01-03T13:48:34.045Z,14.77
2023-01-03T13:51:47.155Z,15.31
2023-01-03T13:54:45.557Z,15.30
2023-01-03T13:57:31.765Z,15.15
2023-01-03T14:00:00.317Z,14.85
2023-01-03T14:02:55.455Z,15.13
2023-01-03T14:05:42.191Z,14.71
2023-01-03T14:08:27.216Z,14.69
2023-01-03T14:11:16.994Z,15.12
2023-01-03T14:13:45.894Z,14.98
2023-01-03T14:16:26.676Z,14.63
2023-01-03T14:19:05.004Z,14.84
2023-01-03T14:21:40.252Z,14.66
2023-01-03T14:24:15.132Z,14.66
2023-01-03T14:26:42.757Z,14.85
2023-01-03T14:29:11.287Z,14.76
2023-01-03T14:31:40.153Z,14.67
2023-01-03T14:34:11.417Z,14.46
2023-01-03T14:36:45.863Z,13.98
2023-01-03T14:39:21.853Z,14.38
2023-01-03T14:41:49.589Z,14.37
2023-01-03T14:44:17.822Z,13.97
2023-01-03T14:46:50.423Z,14.22
2023-01-03T14:49:21.306Z,14.30
2023-01-03T14:51:48.919Z,14.28
2023-01-03T14:54:19.458Z,14.05
2023-01-03T14:56:47.070Z,14.22
2023-01-03T14:59:14.781Z,13.97
2023-01-03T15:01:43.137Z,14.00
2023-01-03T15:04:11.981Z,13.87
2023-01-03T15:06:39.563Z,13.98
2023-01-03T15:09:15.909Z,13.92
2023-01-03T15:11:56.970Z,13.78
2023-01-03T15:14:24.828Z,13.73
2023-01-03T15:16:52.463Z,13.55
2023-01-03T15:19:21.764Z,13.75
2023-01-03T15:21:49.357Z,13.74
2023-01-03T15:24:17.814Z,13.72
2023-01-03T15:26:47.673Z,13.52
2023-01-03T15:29:16.505Z,13.66
2023-01-03T15:31:48.642Z,13.58
2023-01-03T15:34:17.961Z,13.37
2023-01-03T15:36:47.311Z,13.45
2023-01-03T15:39:18.319Z,13.45
2023-01-03T15:42:42.180Z,13.40
2023-01-03T15:44:52.733Z,13.33
2023-01-03T15:47:20.538Z,13.27
2023-01-03T15:49:50.245Z,13.18
2023-01-03T15:52:17.960Z,13.13
2023-01-03T15:54:46.083Z,12.82
2023-01-03T15:57:16.494Z,12.85
2023-01-03T15:59:44.282Z,12.99
2023-01-03T16:02:14.713Z,12.89
2023-01-03T16:04:42.774Z,12.85
2023-01-03T16:07:12.413Z,12.82
2023-01-03T16:09:40.126Z,12.39
2023-01-03T16:12:08.717Z,12.67
2023-01-03T16:14:39.405Z,12.42
2023-01-03T16:17:07.188Z,12.29
2023-01-03T16:19:34.963Z,12.63
2023-01-03T16:24:51.870Z,12.61
2023-01-03T16:27:20.896Z,12.14
2023-01-03T16:29:50.932Z,12.57
2023-01-03T16:32:19.413Z,12.43
2023-01-03T16:34:47.675Z,12.53
2023-01-03T16:37:16.288Z,12.50
2023-01-03T16:39:48.016Z,12.50
2023-01-03T16:42:16.432Z,12.47
2023-01-03T16:44:44.883Z,12.42
2023-01-03T16:47:15.825Z,12.44
2023-01-03T16:49:43.454Z,12.35
2023-01-03T16:52:13.555Z,12.38
2023-01-03T16:54:41.564Z,12.39
2023-01-03T16:57:10.840Z,12.40
2023-01-03T16:59:38.452Z,12.39
2023-01-03T17:02:06.181Z,12.35
2023-01-03T17:04:35.331Z,12.39
2023-01-03T17:07:03.039Z,12.32
2023-01-03T17:09:32.411Z,12.30
2023-01-03T17:11:59.958Z,12.34
2023-01-03T17:14:28.575Z,12.33
2023-01-03T17:16:58.366Z,12.31
2023-01-03T17:22:16.457Z,11.93
2023-01-03T17:24:44.201Z,12.24
2023-01-03T17:27:16.371Z,12.20
2023-01-03T17:29:43.981Z,12.25
2023-01-03T17:32:16.332Z,12.19
2023-01-03T17:34:44.005Z,12.22
2023-01-03T17:37:14.977Z,12.19
2023-01-03T17:39:44.025Z,11.92
2023-01-03T17:42:16.452Z,12.16
2023-01-03T17:45:05.293Z,12.17
2023-01-03T17:47:50.791Z,12.16
2023-01-03T17:50:18.454Z,12.14
2023-01-03T17:52:48.977Z,12.13
2023-01-03T17:55:23.659Z,11.98
2023-01-03T17:57:51.619Z,12.02
2023-01-03T18:00:21.463Z,12.11
2023-01-03T18:02:49.377Z,12.06
2023-01-03T18:05:22.959Z,11.90
2023-01-03T18:07:54.100Z,11.83
2023-01-03T18:10:38.706Z,11.83
2023-01-03T18:13:18.564Z,12.14
2023-01-03T18:15:46.211Z,12.14
2023-01-03T18:18:15.060Z,12.15
2023-01-03T18:20:42.826Z,12.11
2023-01-03T18:23:15.846Z,12.06
2023-01-03T18:25:44.928Z,12.15
2023-01-03T18:28:12.591Z,12.11
2023-01-03T18:30:40.199Z,11.99
2023-01-03T18:33:07.845Z,12.10
2023-01-03T18:35:38.241Z,12.09
2023-01-03T18:38:06.210Z,12.13
2023-01-03T18:40:33.865Z,12.08
2023-01-03T18:43:10.406Z,11.88
2023-01-03T18:45:38.228Z,12.11
2023-01-03T18:48:06.392Z,11.98
2023-01-03T18:50:34.059Z,12.08
2023-01-03T18:53:04.081Z,11.98
2023-01-03T18:55:33.113Z,10.86
2023-01-03T18:58:05.791Z,8.97
2023-01-03T19:00:33.523Z,12.01
2023-01-03T19:03:01.509Z,11.00
2023-01-03T19:05:29.395Z,10.41
2023-01-03T19:07:58.361Z,9.86
2023-01-03T19:10:26.517Z,11.50
2023-01-03T19:12:55.543Z,11.13
2023-01-03T19:15:25.995Z,9.05
2023-01-03T19:17:53.682Z,11.47
2023-01-03T19:20:26.503Z,9.51
2023-01-03T19:22:54.880Z,10.39
2023-01-03T19:25:25.305Z,10.19
2023-01-03T19:27:54.376Z,10.79
2023-01-03T19:30:27.222Z,10.96
2023-01-03T19:32:57.450Z,11.50
2023-01-03T19:35:25.225Z,10.85
2023-01-03T19:37:53.181Z,11.45
2023-01-03T19:40:21.723Z,9.71
2023-01-03T19:42:52.604Z,10.01
2023-01-03T19:45:25.495Z,9.48
2023-01-03T19:47:53.428Z,9.13
2023-01-03T19:50:22.150Z,11.53
2023-01-03T19:52:50.158Z,10.10
2023-01-03T19:55:18.433Z,10.13
2023-01-03T19:57:49.002Z,11.10
2023-01-03T20:00:19.356Z,8.81
2023-01-03T20:02:49.249Z,10.10
2023-01-03T20:05:18.981Z,11.55
2023-01-03T20:07:47.557Z,11.52
2023-01-03T20:10:16.915Z,9.36
2023-01-03T20:12:44.819Z,10.73
2023-01-03T20:15:23.676Z,10.20
2023-01-03T20:17:53.046Z,9.68
2023-01-03T20:20:22.601Z,8.51
2023-01-03T20:23:04.556Z,9.45
2023-01-03T20:25:38.340Z,11.48
2023-01-03T20:28:06.606Z,9.18
2023-01-03T20:30:34.957Z,9.93
2023-01-03T20:33:04.535Z,11.08
2023-01-03T20:38:25.182Z,11.02
2023-01-03T20:40:53.275Z,10.80
2023-01-03T20:43:21.418Z,9.78
2023-01-03T20:45:51.804Z,10.35
2023-01-03T20:48:25.518Z,9.85
2023-01-03T20:50:53.793Z,10.57
2023-01-03T20:53:22.886Z,11.43
2023-01-03T20:55:50.882Z,10.70
2023-01-03T20:58:19.723Z,11.41
2023-01-03T21:00:47.882Z,10.48
2023-01-03T21:03:16.173Z,9.52
2023-01-03T21:05:46.557Z,10.16
2023-01-03T21:08:33.608Z,10.66
2023-01-03T21:11:01.529Z,9.64
2023-01-03T21:13:29.253Z,10.60
2023-01-03T21:15:57.227Z,9.37
2023-01-03T21:18:25.217Z,10.41
2023-01-03T21:20:54.335Z,10.97
2023-01-03T21:23:23.217Z,10.52
2023-01-03T21:25:50.992Z,11.34
2023-01-03T21:28:18.794Z,11.30
2023-01-03T21:30:46.721Z,10.35
2023-01-03T21:33:17.113Z,11.21
2023-01-03T21:35:45.453Z,10.22
2023-01-03T21:38:14.887Z,10.24
2023-01-03T21:40:42.969Z,10.40
2023-01-03T21:43:10.993Z,11.23
2023-01-03T21:45:43.344Z,8.08
2023-01-03T21:48:12.646Z,11.32
2023-01-03T21:50:42.242Z,9.32
2023-01-03T21:53:11.817Z,10.61
2023-01-03T21:55:41.624Z,10.62
2023-01-03T21:58:09.797Z,10.60
2023-01-03T22:00:37.808Z,9.54
2023-01-03T22:03:23.067Z,10.31
2023-01-03T22:05:53.026Z,11.30
2023-01-03T22:08:21.231Z,10.46
2023-01-03T22:10:50.921Z,9.88
2023-01-03T22:13:19.567Z,10.19
2023-01-03T22:15:47.593Z,11.38
2023-01-03T22:18:18.427Z,10.19
2023-01-03T22:20:46.276Z,11.36
2023-01-03T22:23:16.771Z,11.33
2023-01-03T22:25:44.693Z,10.00
2023-01-03T22:28:14.336Z,9.36
2023-01-03T22:30:42.000Z,8.80
2023-01-03T22:33:10.511Z,11.36
2023-01-03T22:35:38.193Z,10.30
2023-01-03T22:38:05.935Z,11.35
2023-01-03T22:40:33.672Z,8.76
2023-01-03T22:43:01.387Z,9.42
2023-01-03T22:45:30.611Z,9.53
2023-01-03T22:47:59.213Z,10.18
2023-01-03T22:50:27.058Z,10.30
2023-01-03T22:52:55.188Z,11.25
2023-01-03T22:55:26.782Z,11.27
2023-01-03T22:57:59.465Z,11.18
2023-01-03T23:00:27.867Z,10.90
2023-01-03T23:02:57.115Z,9.57
2023-01-03T23:05:24.888Z,9.81
2023-01-03T23:07:53.730Z,10.53
2023-01-03T23:10:21.472Z,10.52
2023-01-03T23:13:00.725Z,10.10
2023-01-03T23:15:29.188Z,9.12
2023-01-03T23:17:58.553Z,10.14
2023-01-03T23:20:27.671Z,11.20
2023-01-03T23:22:59.681Z,9.72
2023-01-03T23:25:28.010Z,10.45
2023-01-03T23:27:55.868Z,9.41
2023-01-03T23:30:23.476Z,10.52
2023-01-03T23:32:51.158Z,11.23
2023-01-03T23:35:20.605Z,9.20
2023-01-03T23:37:48.424Z,10.34
2023-01-03T23:40:16.205Z,9.37
2023-01-03T23:42:44.050Z,10.31
2023-01-03T23:45:12.044Z,10.98
2023-01-03T23:47:39.683Z,10.02
2023-01-03T23:50:07.629Z,10.15
2023-01-03T23:52:36.680Z,11.04
2023-01-03T23:55:12.215Z,10.96
2023-01-03T23:57:41.051Z,9.99
